createdAt,value
2018-06-18T00:00:16.807Z,90.90
2018-06-18T00:02:44.926Z,90.70
2018-06-18T00:05:13.009Z,90.60
2018-06-18T00:07:41.127Z,90.50
2018-06-18T00:10:09.218Z,90.50
2018-06-18T00:12:37.498Z,90.50
2018-06-18T00:15:05.574Z,90.60
2018-06-18T00:17:33.646Z,90.60
2018-06-18T00:20:01.727Z,90.70
2018-06-18T00:22:29.802Z,90.80
2018-06-18T00:25:04.468Z,90.90
2018-06-18T00:27:32.576Z,91.00
2018-06-18T00:30:00.654Z,91.00
2018-06-18T00:32:28.726Z,90.90
2018-06-18T00:34:56.790Z,90.80
2018-06-18T00:37:24.864Z,90.80
2018-06-18T00:39:52.970Z,90.60
2018-06-18T00:42:21.042Z,90.60
2018-06-18T00:44:49.118Z,90.50
2018-06-18T00:47:17.182Z,90.50
2018-06-18T00:49:45.333Z,90.40
2018-06-18T00:52:13.415Z,90.50
2018-06-18T00:54:41.506Z,90.50
2018-06-18T00:57:09.574Z,90.50
2018-06-18T00:59:37.709Z,90.50
2018-06-18T01:02:05.783Z,90.50
2018-06-18T01:04:33.910Z,90.50
2018-06-18T01:07:01.994Z,90.40
2018-06-18T01:09:30.058Z,90.50
2018-06-18T01:11:58.126Z,90.50
2018-06-18T01:16:54.151Z,90.90
2018-06-18T01:19:22.210Z,90.70
2018-06-18T01:21:50.287Z,90.70
2018-06-18T01:24:36.546Z,90.80
2018-06-18T01:27:05.613Z,90.90
2018-06-18T01:29:33.695Z,90.90
2018-06-18T01:32:01.774Z,91.00
2018-06-18T01:34:29.903Z,91.00
2018-06-18T01:36:57.982Z,91.10
2018-06-18T01:39:26.062Z,91.10
2018-06-18T01:44:22.057Z,91.30
2018-06-18T01:46:50.159Z,91.20
2018-06-18T01:49:18.267Z,91.30
2018-06-18T01:51:46.394Z,91.30
2018-06-18T01:54:14.543Z,91.40
2018-06-18T01:56:42.637Z,91.80
2018-06-18T01:59:10.714Z,91.70
2018-06-18T02:01:38.870Z,91.90
2018-06-18T02:04:06.966Z,91.90
2018-06-18T02:06:35.108Z,91.90
2018-06-18T02:09:03.446Z,91.80
2018-06-18T02:11:31.543Z,91.80
2018-06-18T02:13:59.607Z,91.80
2018-06-18T02:16:27.684Z,91.80
2018-06-18T02:18:55.782Z,91.80
2018-06-18T02:21:23.858Z,91.90
2018-06-18T02:23:51.944Z,91.90
2018-06-18T02:26:20.024Z,92.00
2018-06-18T02:28:53.506Z,92.10
2018-06-18T02:31:27.061Z,92.10
2018-06-18T02:34:01.032Z,92.20
2018-06-18T02:36:34.523Z,92.20
2018-06-18T02:39:08.647Z,92.20
2018-06-18T02:41:36.765Z,92.20
2018-06-18T02:44:04.853Z,92.20
2018-06-18T02:46:32.942Z,92.30
2018-06-18T02:49:01.014Z,92.40
2018-06-18T02:51:29.125Z,92.40
2018-06-18T02:57:00.946Z,92.40
2018-06-18T02:59:29.047Z,92.40
2018-06-18T03:01:57.126Z,92.90
2018-06-18T03:04:25.204Z,92.80
2018-06-18T03:06:53.290Z,92.70
2018-06-18T03:09:21.366Z,92.60
2018-06-18T03:11:49.489Z,92.60
2018-06-18T03:14:17.566Z,92.60
2018-06-18T03:16:45.674Z,92.60
2018-06-18T03:19:19.162Z,92.50
2018-06-18T03:21:52.846Z,92.50
2018-06-18T03:24:26.510Z,92.50
2018-06-18T03:27:00.078Z,92.50
2018-06-18T03:29:30.174Z,92.50
2018-06-18T03:31:59.973Z,92.50
2018-06-18T03:34:28.057Z,92.50
2018-06-18T03:36:56.907Z,92.50
2018-06-18T03:39:25.008Z,92.50
2018-06-18T03:41:53.338Z,92.50
2018-06-18T03:44:39.122Z,92.50
2018-06-18T03:49:37.039Z,92.50
2018-06-18T03:52:05.115Z,92.50
2018-06-18T03:54:33.236Z,92.40
2018-06-18T03:57:01.308Z,92.50
2018-06-18T03:59:29.379Z,92.50
2018-06-18T04:02:07.050Z,92.50
2018-06-18T04:04:45.851Z,92.50
2018-06-18T04:07:20.952Z,92.70
2018-06-18T04:09:54.575Z,92.60
2018-06-18T04:12:22.763Z,92.80
2018-06-18T04:14:50.758Z,92.70
2018-06-18T04:17:18.871Z,92.70
2018-06-18T04:19:47.084Z,92.60
2018-06-18T04:22:15.170Z,92.60
2018-06-18T04:24:43.509Z,92.50
2018-06-18T04:27:11.587Z,92.40
2018-06-18T04:29:39.677Z,92.40
2018-06-18T04:32:07.747Z,92.30
2018-06-18T04:34:42.270Z,92.30
2018-06-18T04:37:10.368Z,92.30
2018-06-18T04:39:38.434Z,92.30
2018-06-18T04:42:12.095Z,92.30
2018-06-18T04:44:45.718Z,92.30
2018-06-18T04:48:21.892Z,92.30
2018-06-18T04:50:55.310Z,92.30
2018-06-18T04:53:23.414Z,92.20
2018-06-18T04:55:51.507Z,92.30
2018-06-18T04:58:19.578Z,92.30
2018-06-18T05:00:56.455Z,92.30
2018-06-18T05:03:24.543Z,92.30
2018-06-18T05:05:52.631Z,92.20
2018-06-18T05:08:28.762Z,92.20
2018-06-18T05:10:56.837Z,92.20
2018-06-18T05:13:24.927Z,92.20
2018-06-18T05:15:53.891Z,92.20
2018-06-18T05:18:21.955Z,92.40
2018-06-18T05:20:50.200Z,92.30
2018-06-18T05:23:19.311Z,92.20
2018-06-18T05:25:53.350Z,92.00
2018-06-18T05:28:21.462Z,92.00
2018-06-18T05:30:49.542Z,92.00
2018-06-18T05:35:45.613Z,92.00
2018-06-18T05:38:24.652Z,92.00
2018-06-18T05:40:52.704Z,92.00
2018-06-18T05:43:20.789Z,91.90
2018-06-18T05:45:48.950Z,91.90
2018-06-18T05:48:17.044Z,91.90
2018-06-18T05:50:45.178Z,91.80
2018-06-18T05:53:13.190Z,91.70
2018-06-18T05:55:41.283Z,91.70
2018-06-18T05:58:09.344Z,91.70
2018-06-18T06:00:37.455Z,91.70
2018-06-18T06:03:05.533Z,91.70
2018-06-18T06:05:33.622Z,91.60
2018-06-18T06:08:01.743Z,91.60
2018-06-18T06:10:29.923Z,91.70
2018-06-18T06:12:58.097Z,91.70
2018-06-18T06:15:26.150Z,91.70
2018-06-18T06:17:54.264Z,91.70
2018-06-18T06:20:22.343Z,91.70
2018-06-18T06:22:50.434Z,91.70
2018-06-18T06:25:18.536Z,91.70
2018-06-18T06:27:46.644Z,91.70
2018-06-18T06:30:14.707Z,91.70
2018-06-18T06:32:42.841Z,91.80
2018-06-18T06:35:17.830Z,91.70
2018-06-18T06:37:46.091Z,91.70
2018-06-18T06:40:14.150Z,91.50
2018-06-18T06:42:42.247Z,91.30
2018-06-18T06:45:10.312Z,91.20
2018-06-18T06:47:38.398Z,91.10
2018-06-18T06:50:06.470Z,91.10
2018-06-18T06:52:34.534Z,91.40
2018-06-18T06:55:02.591Z,91.10
2018-06-18T06:57:32.291Z,91.10
2018-06-18T07:00:01.011Z,91.00
2018-06-18T07:02:29.082Z,91.10
2018-06-18T07:04:57.196Z,91.10
2018-06-18T07:07:25.271Z,91.10
2018-06-18T07:09:53.402Z,91.20
2018-06-18T07:12:21.462Z,91.10
2018-06-18T07:14:49.547Z,91.40
2018-06-18T07:22:13.398Z,92.20
2018-06-18T07:24:41.464Z,92.20
2018-06-18T07:27:09.538Z,92.80
2018-06-18T07:29:37.630Z,92.70
2018-06-18T07:32:05.814Z,92.70
2018-06-18T07:34:33.881Z,92.70
2018-06-18T07:37:01.944Z,92.70
2018-06-18T07:39:30.028Z,92.80
2018-06-18T07:41:58.261Z,92.90
2018-06-18T07:44:26.327Z,93.00
2018-06-18T07:46:54.410Z,93.10
2018-06-18T07:49:22.506Z,93.10
2018-06-18T07:51:51.538Z,93.10
2018-06-18T07:54:19.700Z,93.20
2018-06-18T07:56:47.767Z,93.30
2018-06-18T07:59:15.846Z,93.50
2018-06-18T08:01:43.959Z,93.60
2018-06-18T08:04:12.030Z,93.70
2018-06-18T08:06:40.111Z,93.70
2018-06-18T08:09:10.487Z,93.80
2018-06-18T08:11:38.579Z,93.80
2018-06-18T08:14:06.834Z,94.00
2018-06-18T08:16:34.910Z,94.20
2018-06-18T08:19:03.112Z,94.50
2018-06-18T08:21:31.175Z,94.90
2018-06-18T08:23:59.241Z,95.10
2018-06-18T08:26:27.330Z,95.30
2018-06-18T08:28:55.794Z,95.40
2018-06-18T08:31:23.914Z,95.90
2018-06-18T08:33:51.979Z,95.90
2018-06-18T08:36:20.122Z,96.50
2018-06-18T08:38:48.208Z,96.40
2018-06-18T08:41:16.296Z,96.40
2018-06-18T08:43:44.406Z,96.30
2018-06-18T08:46:12.470Z,96.30
2018-06-18T08:48:45.980Z,96.40
2018-06-18T08:51:19.662Z,96.40
2018-06-18T08:53:53.199Z,96.40
2018-06-18T08:56:26.683Z,96.70
2018-06-18T08:59:00.068Z,96.80
2018-06-18T09:01:30.303Z,96.50
2018-06-18T09:04:03.857Z,96.60
2018-06-18T09:06:31.995Z,96.70
2018-06-18T09:09:00.086Z,96.80
2018-06-18T09:11:28.415Z,96.90
2018-06-18T09:13:56.491Z,97.00
2018-06-18T09:16:24.686Z,97.00
2018-06-18T09:18:52.992Z,97.20
2018-06-18T09:21:21.074Z,97.20
2018-06-18T09:23:49.159Z,97.40
2018-06-18T09:26:17.227Z,97.30
2018-06-18T09:28:45.312Z,97.40
2018-06-18T09:31:13.423Z,97.40
2018-06-18T09:33:43.329Z,97.50
2018-06-18T09:36:11.871Z,98.00
2018-06-18T09:38:39.945Z,98.10
2018-06-18T09:41:08.048Z,98.70
2018-06-18T09:43:36.102Z,98.60
2018-06-18T09:46:04.167Z,98.60
2018-06-18T09:48:37.819Z,98.50
2018-06-18T09:51:11.083Z,98.40
2018-06-18T09:53:44.610Z,98.40
2018-06-18T09:56:18.257Z,98.40
2018-06-18T09:58:51.959Z,98.40
2018-06-18T10:01:25.459Z,98.60
2018-06-18T10:03:53.540Z,98.60
2018-06-18T10:06:23.120Z,98.50
2018-06-18T10:08:51.326Z,98.60
2018-06-18T10:11:19.298Z,98.70
2018-06-18T10:13:47.389Z,98.70
2018-06-18T10:16:15.459Z,98.80
2018-06-18T10:18:43.560Z,98.80
2018-06-18T10:21:11.659Z,98.90
2018-06-18T10:23:39.753Z,99.00
2018-06-18T10:26:07.814Z,99.10
2018-06-18T10:28:35.891Z,99.10
2018-06-18T10:31:04.028Z,99.10
2018-06-18T10:33:37.545Z,99.00
2018-06-18T10:36:11.227Z,99.10
2018-06-18T10:38:44.902Z,99.80
2018-06-18T10:41:18.482Z,99.70
2018-06-18T10:43:46.537Z,99.90
2018-06-18T10:46:14.607Z,99.90
2018-06-18T10:48:42.703Z,99.90
2018-06-18T10:51:10.816Z,99.90
2018-06-18T10:53:38.888Z,99.90
2018-06-18T10:56:06.971Z,99.90
2018-06-18T10:58:35.078Z,99.90
2018-06-18T11:01:07.150Z,99.90
2018-06-18T11:03:35.351Z,99.90
2018-06-18T11:06:08.867Z,99.90
2018-06-18T11:08:37.162Z,99.90
2018-06-18T11:11:05.373Z,99.90
2018-06-18T11:13:33.462Z,99.90
2018-06-18T11:16:01.537Z,99.90
2018-06-18T11:18:35.055Z,99.90
2018-06-18T11:21:10.114Z,99.90
2018-06-18T11:23:43.596Z,99.90
2018-06-18T11:26:17.241Z,99.90
2018-06-18T11:28:45.346Z,99.90
2018-06-18T11:31:13.367Z,99.90
2018-06-18T11:33:41.466Z,99.90
2018-06-18T11:36:09.573Z,99.90
2018-06-18T11:38:37.648Z,99.90
2018-06-18T11:41:05.803Z,99.90
2018-06-18T11:43:33.907Z,99.90
2018-06-18T11:46:02.010Z,99.90
2018-06-18T11:48:30.100Z,99.90
2018-06-18T11:50:58.206Z,99.90
2018-06-18T11:53:26.283Z,99.90
2018-06-18T11:55:54.431Z,99.90
2018-06-18T11:58:27.912Z,99.60
2018-06-18T12:01:01.739Z,99.10
2018-06-18T12:03:35.210Z,98.80
2018-06-18T12:06:08.929Z,98.30
2018-06-18T12:08:42.555Z,98.00
2018-06-18T12:11:10.622Z,97.80
2018-06-18T12:13:38.675Z,97.50
2018-06-18T12:16:06.743Z,97.40
2018-06-18T12:18:34.825Z,97.30
2018-06-18T12:21:02.887Z,97.40
2018-06-18T12:23:30.985Z,97.30
2018-06-18T12:25:59.039Z,97.10
2018-06-18T12:28:27.095Z,96.80
2018-06-18T12:30:55.234Z,96.60
2018-06-18T12:33:23.321Z,96.40
2018-06-18T12:35:51.422Z,96.00
2018-06-18T12:38:19.514Z,95.40
2018-06-18T12:40:47.719Z,95.10
2018-06-18T12:43:19.194Z,94.60
2018-06-18T12:45:54.790Z,94.40
2018-06-18T12:48:28.440Z,93.90
2018-06-18T12:51:02.078Z,93.60
2018-06-18T12:53:35.651Z,93.40
2018-06-18T12:56:09.079Z,93.50
2018-06-18T12:58:37.164Z,93.60
2018-06-18T13:01:05.371Z,93.80
2018-06-18T13:03:33.439Z,93.20
2018-06-18T13:06:01.512Z,93.00
2018-06-18T13:08:29.602Z,93.00
2018-06-18T13:10:57.682Z,93.00
2018-06-18T13:13:25.754Z,93.00
2018-06-18T13:15:53.944Z,92.80
2018-06-18T13:18:22.061Z,92.70
2018-06-18T13:20:50.107Z,92.70
2018-06-18T13:23:19.492Z,92.80
2018-06-18T13:25:47.563Z,92.70
2018-06-18T13:28:16.670Z,92.80
2018-06-18T13:30:45.527Z,92.40
2018-06-18T13:33:13.721Z,92.00
2018-06-18T13:35:42.441Z,92.10
2018-06-18T13:38:15.926Z,92.10
2018-06-18T13:40:49.295Z,91.90
2018-06-18T13:43:22.950Z,91.60
2018-06-18T13:45:58.297Z,91.30
2018-06-18T13:48:32.418Z,91.30
2018-06-18T13:51:00.591Z,91.00
2018-06-18T13:53:28.782Z,91.10
2018-06-18T13:55:56.918Z,91.20
2018-06-18T13:58:25.106Z,91.30
2018-06-18T14:00:53.270Z,91.30
2018-06-18T14:03:21.366Z,91.30
2018-06-18T14:05:49.523Z,91.30
2018-06-18T14:08:17.636Z,91.40
2018-06-18T14:10:45.779Z,91.40
2018-06-18T14:13:13.955Z,91.60
2018-06-18T14:15:42.197Z,91.70
2018-06-18T14:18:10.376Z,91.60
2018-06-18T14:20:39.278Z,91.50
2018-06-18T14:23:07.388Z,91.50
2018-06-18T14:25:35.689Z,91.30
2018-06-18T14:28:03.795Z,91.10
2018-06-18T14:30:37.260Z,90.70
2018-06-18T14:33:10.722Z,90.60
2018-06-18T14:35:44.211Z,89.90
2018-06-18T14:38:17.790Z,89.40
2018-06-18T14:40:45.879Z,88.40
2018-06-18T14:43:13.994Z,87.70
2018-06-18T14:45:42.214Z,86.90
2018-06-18T14:48:10.265Z,87.00
2018-06-18T14:50:38.783Z,87.30
2018-06-18T14:55:35.996Z,87.30
2018-06-18T14:58:04.368Z,86.60
2018-06-18T15:00:33.816Z,87.00
2018-06-18T15:03:01.909Z,86.80
2018-06-18T15:05:32.591Z,86.50
2018-06-18T15:08:00.704Z,86.10
2018-06-18T15:10:34.208Z,85.60
2018-06-18T15:13:02.635Z,85.20
2018-06-18T15:15:36.428Z,85.80
2018-06-18T15:18:04.778Z,85.10
2018-06-18T15:20:32.894Z,85.20
2018-06-18T15:23:02.823Z,85.00
2018-06-18T15:25:35.038Z,84.50
2018-06-18T15:28:03.294Z,85.00
2018-06-18T15:30:31.452Z,84.80
2018-06-18T15:32:59.545Z,84.10
2018-06-18T15:35:27.898Z,83.80
2018-06-18T15:37:56.079Z,83.30
2018-06-18T15:40:24.964Z,82.80
2018-06-18T15:45:21.135Z,81.10
2018-06-18T15:47:49.202Z,81.00
2018-06-18T15:50:17.278Z,81.20
2018-06-18T15:52:45.390Z,81.40
2018-06-18T15:55:17.475Z,81.40
2018-06-18T15:57:45.624Z,81.80
2018-06-18T16:00:13.687Z,82.00
2018-06-18T16:02:41.927Z,82.00
2018-06-18T16:05:10.093Z,80.90
2018-06-18T16:07:38.239Z,80.70
2018-06-18T16:10:06.341Z,80.30
2018-06-18T16:12:34.606Z,80.10
2018-06-18T16:15:02.703Z,79.60
2018-06-18T16:17:30.775Z,79.20
2018-06-18T16:19:58.914Z,77.00
2018-06-18T16:22:27.031Z,76.00
2018-06-18T16:27:23.039Z,74.60
2018-06-18T16:29:51.112Z,74.40
2018-06-18T16:32:19.202Z,74.10
2018-06-18T16:37:15.281Z,73.80
2018-06-18T16:39:43.380Z,71.40
2018-06-18T16:42:11.468Z,70.50
2018-06-18T16:44:39.556Z,70.90
2018-06-18T16:47:07.701Z,71.80
2018-06-18T16:49:35.815Z,71.20
2018-06-18T16:52:03.894Z,69.60
2018-06-18T16:54:31.998Z,68.30
2018-06-18T16:57:00.067Z,68.60
2018-06-18T16:59:28.146Z,69.50
2018-06-18T17:01:56.229Z,70.40
2018-06-18T17:04:24.303Z,72.10
2018-06-18T17:06:52.378Z,72.00
2018-06-18T17:09:20.834Z,72.60
2018-06-18T17:11:48.948Z,73.30
2018-06-18T17:14:17.037Z,74.00
2018-06-18T17:16:45.146Z,74.10
2018-06-18T17:19:13.224Z,74.00
2018-06-18T17:21:41.318Z,74.00
2018-06-18T17:24:09.420Z,74.30
2018-06-18T17:26:37.510Z,74.50
2018-06-18T17:31:33.481Z,74.70
2018-06-18T17:34:01.534Z,74.60
2018-06-18T17:36:29.643Z,74.30
2018-06-18T17:38:57.734Z,74.20
2018-06-18T17:41:25.830Z,74.50
2018-06-18T17:43:53.923Z,74.50
2018-06-18T17:46:22.028Z,74.40
2018-06-18T17:48:50.095Z,73.80
2018-06-18T17:51:18.203Z,73.70
2018-06-18T17:53:46.363Z,74.00
2018-06-18T17:56:14.412Z,74.00
2018-06-18T17:58:42.490Z,74.10
2018-06-18T18:01:11.585Z,74.20
2018-06-18T18:03:39.631Z,74.30
2018-06-18T18:06:07.710Z,74.80
2018-06-18T18:08:35.793Z,75.20
2018-06-18T18:11:03.923Z,75.50
2018-06-18T18:13:32.179Z,75.80
2018-06-18T18:16:00.150Z,75.90
2018-06-18T18:18:28.243Z,76.10
2018-06-18T18:23:24.250Z,76.70
2018-06-18T18:25:52.372Z,77.00
2018-06-18T18:28:20.568Z,77.10
2018-06-18T18:30:48.754Z,76.80
2018-06-18T18:33:16.818Z,76.30
2018-06-18T18:35:44.890Z,75.60
2018-06-18T18:38:12.970Z,75.50
2018-06-18T18:40:41.076Z,75.40
2018-06-18T18:43:09.126Z,76.00
2018-06-18T18:45:37.255Z,75.50
2018-06-18T18:48:05.543Z,75.70
2018-06-18T18:50:33.723Z,76.00
2018-06-18T18:53:01.823Z,76.30
2018-06-18T18:55:58.651Z,76.70
2018-06-18T18:59:37.834Z,77.00
2018-06-18T19:02:06.230Z,77.10
2018-06-18T19:04:43.205Z,77.60
2018-06-18T19:07:11.282Z,77.40
2018-06-18T19:12:13.086Z,77.90
2018-06-18T19:14:41.242Z,78.20
2018-06-18T19:17:09.294Z,78.70
2018-06-18T19:19:47.756Z,79.00
2018-06-18T19:22:15.846Z,79.50
2018-06-18T19:24:44.389Z,79.70
2018-06-18T19:27:12.518Z,79.90
2018-06-18T19:29:40.591Z,80.10
2018-06-18T19:32:08.699Z,80.40
2018-06-18T19:37:05.056Z,80.90
2018-06-18T19:39:39.087Z,81.10
2018-06-18T19:42:07.671Z,81.30
2018-06-18T19:44:35.782Z,81.50
2018-06-18T19:47:17.575Z,81.70
2018-06-18T19:49:45.690Z,82.10
2018-06-18T19:52:13.770Z,82.30
2018-06-18T19:54:45.527Z,82.60
2018-06-18T19:59:41.522Z,82.90
2018-06-18T20:02:09.591Z,83.20
2018-06-18T20:04:37.689Z,83.40
2018-06-18T20:07:05.812Z,83.70
2018-06-18T20:09:33.841Z,84.00
2018-06-18T20:12:01.914Z,84.20
2018-06-18T20:16:58.064Z,84.80
2018-06-18T20:19:26.148Z,86.00
2018-06-18T20:21:54.216Z,86.00
2018-06-18T20:24:22.412Z,86.20
2018-06-18T20:26:50.454Z,86.30
2018-06-18T20:29:18.515Z,86.40
2018-06-18T20:34:14.623Z,86.70
2018-06-18T20:36:42.693Z,86.90
2018-06-18T20:39:12.307Z,87.00
2018-06-18T20:41:40.500Z,87.20
2018-06-18T20:44:11.354Z,87.50
2018-06-18T20:46:39.830Z,88.50
2018-06-18T20:51:37.682Z,88.20
2018-06-18T20:54:05.948Z,87.90
2018-06-18T20:56:33.998Z,88.50
2018-06-18T20:59:02.123Z,89.00
2018-06-18T21:01:30.193Z,89.30
2018-06-18T21:03:58.251Z,90.10
2018-06-18T21:06:26.310Z,89.80
2018-06-18T21:08:54.362Z,90.00
2018-06-18T21:11:22.432Z,90.20
2018-06-18T21:13:50.731Z,90.60
2018-06-18T21:16:18.811Z,90.50
2018-06-18T21:18:46.889Z,90.50
2018-06-18T21:21:14.962Z,90.50
2018-06-18T21:23:43.035Z,90.50
2018-06-18T21:26:11.115Z,90.40
2018-06-18T21:28:39.191Z,90.50
2018-06-18T21:31:07.271Z,90.80
2018-06-18T21:33:35.387Z,90.50
2018-06-18T21:36:03.406Z,90.60
2018-06-18T21:38:31.466Z,90.60
2018-06-18T21:40:59.551Z,90.60
2018-06-18T21:43:28.033Z,90.60
2018-06-18T21:45:56.578Z,90.60
2018-06-18T21:48:24.675Z,90.60
2018-06-18T21:50:52.882Z,90.70
2018-06-18T21:53:20.946Z,90.80
2018-06-18T21:58:16.910Z,90.80
2018-06-18T22:00:49.924Z,90.80
2018-06-18T22:03:18.221Z,90.90
2018-06-18T22:05:46.496Z,90.90
2018-06-18T22:08:16.476Z,91.00
2018-06-18T22:10:44.921Z,91.30
2018-06-18T22:13:13.524Z,91.30
2018-06-18T22:15:41.840Z,91.60
2018-06-18T22:18:10.055Z,91.60
2018-06-18T22:20:38.119Z,91.60
2018-06-18T22:25:34.501Z,91.70
2018-06-18T22:28:03.874Z,91.70
2018-06-18T22:30:31.987Z,91.80
2018-06-18T22:33:00.036Z,91.90
2018-06-18T22:35:28.091Z,91.90
2018-06-18T22:37:56.159Z,92.00
2018-06-18T22:42:52.082Z,92.10
2018-06-18T22:45:20.131Z,92.10
2018-06-18T22:47:48.179Z,92.20
2018-06-18T22:50:16.246Z,92.20
2018-06-18T22:52:44.302Z,92.20
2018-06-18T22:55:12.366Z,92.20
2018-06-18T22:57:40.438Z,92.20
2018-06-18T23:00:08.486Z,92.20
2018-06-18T23:02:36.535Z,92.20
2018-06-18T23:05:04.589Z,92.30
2018-06-18T23:07:32.634Z,92.50
2018-06-18T23:10:00.710Z,92.20
2018-06-18T23:12:31.811Z,92.40
2018-06-18T23:14:59.914Z,92.40
2018-06-18T23:17:27.976Z,92.80
2018-06-18T23:19:56.198Z,92.40
2018-06-18T23:22:24.283Z,92.50
2018-06-18T23:24:52.456Z,92.40
2018-06-18T23:27:20.600Z,92.40
2018-06-18T23:29:48.655Z,92.50
2018-06-18T23:32:16.725Z,92.50
2018-06-18T23:34:44.784Z,92.50
2018-06-18T23:37:12.842Z,92.50
2018-06-18T23:39:40.928Z,92.60
2018-06-18T23:42:08.978Z,92.90
2018-06-18T23:44:37.082Z,92.70
2018-06-18T23:47:05.156Z,92.80
2018-06-18T23:49:33.206Z,92.80
2018-06-18T23:52:01.275Z,92.80
2018-06-18T23:54:29.334Z,92.80
2018-06-18T23:56:57.386Z,92.90
2018-06-18T23:59:25.458Z,92.70
